sensor_id;sensor_type;location;lat;lon;timestamp;temperature;humidity
67196;DHT22;54122;53.538;49.366;2022-11-15T00:02:07;-2.10;66.50
67196;DHT22;54122;53.538;49.366;2022-11-15T00:04:34;-2.10;65.60
67196;DHT22;54122;53.538;49.366;2022-11-15T00:07:00;-2.10;65.00
67196;DHT22;54122;53.538;49.366;2022-11-15T00:09:26;-2.20;64.80
67196;DHT22;54122;53.538;49.366;2022-11-15T00:11:52;-2.20;65.10
67196;DHT22;54122;53.538;49.366;2022-11-15T00:14:18;-2.30;65.30
67196;DHT22;54122;53.538;49.366;2022-11-15T00:16:44;-2.30;65.10
67196;DHT22;54122;53.538;49.366;2022-11-15T00:19:11;-2.30;64.50
67196;DHT22;54122;53.538;49.366;2022-11-15T00:21:37;-2.40;64.60
67196;DHT22;54122;53.538;49.366;2022-11-15T00:24:03;-2.50;64.80
67196;DHT22;54122;53.538;49.366;2022-11-15T00:26:29;-2.50;65.20
67196;DHT22;54122;53.538;49.366;2022-11-15T00:28:55;-2.50;64.90
67196;DHT22;54122;53.538;49.366;2022-11-15T00:31:22;-2.50;64.70
67196;DHT22;54122;53.538;49.366;2022-11-15T00:33:48;-2.50;64.60
67196;DHT22;54122;53.538;49.366;2022-11-15T00:36:14;-2.40;64.40
67196;DHT22;54122;53.538;49.366;2022-11-15T00:38:40;-2.30;64.00
67196;DHT22;54122;53.538;49.366;2022-11-15T00:41:07;-2.30;64.00
67196;DHT22;54122;53.538;49.366;2022-11-15T00:43:33;-2.20;64.10
67196;DHT22;54122;53.538;49.366;2022-11-15T00:46:01;-2.30;64.30
67196;DHT22;54122;53.538;49.366;2022-11-15T00:48:28;-2.40;64.20
67196;DHT22;54122;53.538;49.366;2022-11-15T00:50:54;-2.40;64.40
67196;DHT22;54122;53.538;49.366;2022-11-15T00:53:21;-2.50;64.50
67196;DHT22;54122;53.538;49.366;2022-11-15T00:55:47;-2.50;64.60
67196;DHT22;54122;53.538;49.366;2022-11-15T00:58:13;-2.60;64.80
67196;DHT22;54122;53.538;49.366;2022-11-15T01:00:39;-2.60;65.20
67196;DHT22;54122;53.538;49.366;2022-11-15T01:03:05;-2.60;65.60
67196;DHT22;54122;53.538;49.366;2022-11-15T01:05:31;-2.60;66.00
67196;DHT22;54122;53.538;49.366;2022-11-15T01:07:58;-2.60;66.00
67196;DHT22;54122;53.538;49.366;2022-11-15T01:10:24;-2.50;66.10
67196;DHT22;54122;53.538;49.366;2022-11-15T01:12:51;-2.40;66.20
67196;DHT22;54122;53.538;49.366;2022-11-15T01:15:17;-2.30;66.20
67196;DHT22;54122;53.538;49.366;2022-11-15T01:17:44;-2.20;66.50
67196;DHT22;54122;53.538;49.366;2022-11-15T01:20:10;-2.10;67.20
67196;DHT22;54122;53.538;49.366;2022-11-15T01:22:36;-2.20;68.40
67196;DHT22;54122;53.538;49.366;2022-11-15T01:25:03;-2.20;69.80
67196;DHT22;54122;53.538;49.366;2022-11-15T01:27:29;-2.20;70.50
67196;DHT22;54122;53.538;49.366;2022-11-15T01:29:55;-2.20;70.80
67196;DHT22;54122;53.538;49.366;2022-11-15T01:32:21;-2.20;71.60
67196;DHT22;54122;53.538;49.366;2022-11-15T01:34:47;-2.30;72.20
67196;DHT22;54122;53.538;49.366;2022-11-15T01:37:13;-2.30;72.60
67196;DHT22;54122;53.538;49.366;2022-11-15T01:39:39;-2.30;72.60
67196;DHT22;54122;53.538;49.366;2022-11-15T01:42:08;-2.30;72.20
67196;DHT22;54122;53.538;49.366;2022-11-15T01:47:19;-2.40;70.30
67196;DHT22;54122;53.538;49.366;2022-11-15T01:52:19;-2.40;69.20
67196;DHT22;54122;53.538;49.366;2022-11-15T01:54:47;-2.50;68.80
67196;DHT22;54122;53.538;49.366;2022-11-15T01:57:14;-2.50;69.00
67196;DHT22;54122;53.538;49.366;2022-11-15T01:59:43;-2.50;69.10
67196;DHT22;54122;53.538;49.366;2022-11-15T02:02:11;-2.50;69.20
67196;DHT22;54122;53.538;49.366;2022-11-15T02:04:41;-2.50;69.10
67196;DHT22;54122;53.538;49.366;2022-11-15T02:07:09;-2.50;69.10
67196;DHT22;54122;53.538;49.366;2022-11-15T02:09:37;-2.40;68.80
67196;DHT22;54122;53.538;49.366;2022-11-15T02:12:05;-2.40;68.60
67196;DHT22;54122;53.538;49.366;2022-11-15T02:14:32;-2.40;68.20
67196;DHT22;54122;53.538;49.366;2022-11-15T02:17:16;-2.30;67.70
67196;DHT22;54122;53.538;49.366;2022-11-15T02:22:27;-2.10;66.70
67196;DHT22;54122;53.538;49.366;2022-11-15T02:25:20;-2.10;66.40
67196;DHT22;54122;53.538;49.366;2022-11-15T02:37:16;-2.20;65.60
67196;DHT22;54122;53.538;49.366;2022-11-15T02:40:11;-2.20;65.50
67196;DHT22;54122;53.538;49.366;2022-11-15T02:42:47;-2.20;65.60
67196;DHT22;54122;53.538;49.366;2022-11-15T02:45:41;-2.20;65.80
67196;DHT22;54122;53.538;49.366;2022-11-15T02:48:11;-2.20;65.70
67196;DHT22;54122;53.538;49.366;2022-11-15T02:50:38;-2.20;65.50
67196;DHT22;54122;53.538;49.366;2022-11-15T02:53:04;-2.10;65.50
67196;DHT22;54122;53.538;49.366;2022-11-15T02:55:38;-2.10;65.50
67196;DHT22;54122;53.538;49.366;2022-11-15T03:07:22;-2.10;67.90
67196;DHT22;54122;53.538;49.366;2022-11-15T03:10:12;-2.10;67.80
67196;DHT22;54122;53.538;49.366;2022-11-15T03:12:59;-2.10;67.80
67196;DHT22;54122;53.538;49.366;2022-11-15T03:15:31;-2.20;67.80
67196;DHT22;54122;53.538;49.366;2022-11-15T03:17:59;-2.30;68.20
67196;DHT22;54122;53.538;49.366;2022-11-15T03:20:27;-2.40;68.30
67196;DHT22;54122;53.538;49.366;2022-11-15T03:22:56;-2.40;68.50
67196;DHT22;54122;53.538;49.366;2022-11-15T03:25:26;-2.30;68.80
67196;DHT22;54122;53.538;49.366;2022-11-15T03:27:57;-2.30;68.80
67196;DHT22;54122;53.538;49.366;2022-11-15T03:30:24;-2.20;68.50
67196;DHT22;54122;53.538;49.366;2022-11-15T03:32:54;-2.10;68.20
67196;DHT22;54122;53.538;49.366;2022-11-15T03:35:30;-2.10;68.20
67196;DHT22;54122;53.538;49.366;2022-11-15T03:40:42;-2.30;69.20
67196;DHT22;54122;53.538;49.366;2022-11-15T03:43:34;-2.30;69.70
67196;DHT22;54122;53.538;49.366;2022-11-15T03:46:09;-2.30;70.10
67196;DHT22;54122;53.538;49.366;2022-11-15T03:48:46;-2.30;72.40
67196;DHT22;54122;53.538;49.366;2022-11-15T03:51:15;-2.50;73.80
67196;DHT22;54122;53.538;49.366;2022-11-15T03:53:42;-2.60;74.60
67196;DHT22;54122;53.538;49.366;2022-11-15T03:56:08;-2.70;75.30
67196;DHT22;54122;53.538;49.366;2022-11-15T03:58:34;-2.70;75.70
67196;DHT22;54122;53.538;49.366;2022-11-15T04:01:00;-2.60;75.50
67196;DHT22;54122;53.538;49.366;2022-11-15T04:03:27;-2.60;75.10
67196;DHT22;54122;53.538;49.366;2022-11-15T04:05:53;-2.60;74.80
67196;DHT22;54122;53.538;49.366;2022-11-15T04:08:19;-2.50;74.30
67196;DHT22;54122;53.538;49.366;2022-11-15T04:10:48;-2.40;73.70
67196;DHT22;54122;53.538;49.366;2022-11-15T04:13:14;-2.40;73.00
67196;DHT22;54122;53.538;49.366;2022-11-15T04:15:40;-2.30;72.20
67196;DHT22;54122;53.538;49.366;2022-11-15T04:18:06;-2.20;71.50
67196;DHT22;54122;53.538;49.366;2022-11-15T04:20:32;-2.20;71.10
67196;DHT22;54122;53.538;49.366;2022-11-15T04:23:18;-2.20;70.70
67196;DHT22;54122;53.538;49.366;2022-11-15T04:26:05;-2.10;70.20
67196;DHT22;54122;53.538;49.366;2022-11-15T04:28:33;-2.10;69.50
67196;DHT22;54122;53.538;49.366;2022-11-15T04:30:59;-2.00;69.40
67196;DHT22;54122;53.538;49.366;2022-11-15T04:33:25;-2.00;69.30
67196;DHT22;54122;53.538;49.366;2022-11-15T04:35:51;-2.00;69.10
67196;DHT22;54122;53.538;49.366;2022-11-15T04:38:36;-1.90;68.50
67196;DHT22;54122;53.538;49.366;2022-11-15T04:41:03;-1.90;68.10
67196;DHT22;54122;53.538;49.366;2022-11-15T04:43:29;-1.90;68.00
67196;DHT22;54122;53.538;49.366;2022-11-15T04:45:55;-1.90;67.80
67196;DHT22;54122;53.538;49.366;2022-11-15T04:48:21;-1.90;67.40
67196;DHT22;54122;53.538;49.366;2022-11-15T04:50:48;-1.90;66.80
67196;DHT22;54122;53.538;49.366;2022-11-15T04:53:14;-1.90;66.60
67196;DHT22;54122;53.538;49.366;2022-11-15T04:55:44;-1.80;66.20
67196;DHT22;54122;53.538;49.366;2022-11-15T04:58:11;-1.80;65.70
67196;DHT22;54122;53.538;49.366;2022-11-15T05:00:37;-1.80;65.30
67196;DHT22;54122;53.538;49.366;2022-11-15T05:03:03;-1.70;64.90
67196;DHT22;54122;53.538;49.366;2022-11-15T05:05:47;-1.70;64.90
67196;DHT22;54122;53.538;49.366;2022-11-15T05:08:13;-1.70;65.00
67196;DHT22;54122;53.538;49.366;2022-11-15T05:10:40;-1.70;64.90
67196;DHT22;54122;53.538;49.366;2022-11-15T05:13:06;-1.60;65.00
67196;DHT22;54122;53.538;49.366;2022-11-15T05:15:32;-1.60;64.90
67196;DHT22;54122;53.538;49.366;2022-11-15T05:17:59;-1.60;64.40
67196;DHT22;54122;53.538;49.366;2022-11-15T05:20:26;-1.60;64.40
67196;DHT22;54122;53.538;49.366;2022-11-15T05:22:53;-1.50;63.90
67196;DHT22;54122;53.538;49.366;2022-11-15T05:25:22;-1.60;63.10
67196;DHT22;54122;53.538;49.366;2022-11-15T05:27:48;-1.60;63.20
67196;DHT22;54122;53.538;49.366;2022-11-15T05:30:15;-1.60;63.10
67196;DHT22;54122;53.538;49.366;2022-11-15T05:32:41;-1.50;62.40
67196;DHT22;54122;53.538;49.366;2022-11-15T05:35:09;-1.50;62.40
67196;DHT22;54122;53.538;49.366;2022-11-15T05:37:37;-1.30;62.40
67196;DHT22;54122;53.538;49.366;2022-11-15T05:40:04;-1.30;62.10
67196;DHT22;54122;53.538;49.366;2022-11-15T05:42:30;-1.30;62.00
67196;DHT22;54122;53.538;49.366;2022-11-15T05:44:58;-1.30;62.00
67196;DHT22;54122;53.538;49.366;2022-11-15T05:47:27;-1.20;62.30
67196;DHT22;54122;53.538;49.366;2022-11-15T05:49:55;-1.20;62.10
67196;DHT22;54122;53.538;49.366;2022-11-15T05:52:24;-1.20;62.70
67196;DHT22;54122;53.538;49.366;2022-11-15T05:54:52;-1.30;63.00
67196;DHT22;54122;53.538;49.366;2022-11-15T05:57:18;-1.40;63.30
67196;DHT22;54122;53.538;49.366;2022-11-15T05:59:44;-1.40;63.80
67196;DHT22;54122;53.538;49.366;2022-11-15T06:02:11;-1.40;64.10
67196;DHT22;54122;53.538;49.366;2022-11-15T06:04:37;-1.40;64.20
67196;DHT22;54122;53.538;49.366;2022-11-15T06:07:03;-1.40;63.80
67196;DHT22;54122;53.538;49.366;2022-11-15T06:09:29;-1.30;63.00
67196;DHT22;54122;53.538;49.366;2022-11-15T06:11:55;-1.30;61.70
67196;DHT22;54122;53.538;49.366;2022-11-15T06:14:25;-1.20;61.30
67196;DHT22;54122;53.538;49.366;2022-11-15T06:16:54;-1.20;61.20
67196;DHT22;54122;53.538;49.366;2022-11-15T06:19:20;-1.20;61.00
67196;DHT22;54122;53.538;49.366;2022-11-15T06:21:46;-1.10;61.20
67196;DHT22;54122;53.538;49.366;2022-11-15T06:24:15;-1.10;61.20
67196;DHT22;54122;53.538;49.366;2022-11-15T06:26:41;-1.10;61.60
67196;DHT22;54122;53.538;49.366;2022-11-15T06:29:07;-1.00;61.60
67196;DHT22;54122;53.538;49.366;2022-11-15T06:31:34;-0.90;61.20
67196;DHT22;54122;53.538;49.366;2022-11-15T06:34:00;-0.80;60.60
67196;DHT22;54122;53.538;49.366;2022-11-15T06:36:27;-0.70;60.10
67196;DHT22;54122;53.538;49.366;2022-11-15T06:38:53;-0.70;59.60
67196;DHT22;54122;53.538;49.366;2022-11-15T06:41:19;-0.80;58.90
67196;DHT22;54122;53.538;49.366;2022-11-15T06:43:47;-0.80;58.70
67196;DHT22;54122;53.538;49.366;2022-11-15T06:46:13;-0.80;57.60
67196;DHT22;54122;53.538;49.366;2022-11-15T06:48:40;-0.80;56.10
67196;DHT22;54122;53.538;49.366;2022-11-15T06:51:06;-0.70;55.30
67196;DHT22;54122;53.538;49.366;2022-11-15T06:53:33;-0.70;54.40
67196;DHT22;54122;53.538;49.366;2022-11-15T06:56:05;-0.70;53.50
67196;DHT22;54122;53.538;49.366;2022-11-15T06:58:32;-0.70;52.60
67196;DHT22;54122;53.538;49.366;2022-11-15T07:01:07;-0.70;52.30
67196;DHT22;54122;53.538;49.366;2022-11-15T07:03:35;-0.60;51.50
67196;DHT22;54122;53.538;49.366;2022-11-15T07:06:02;-0.60;51.10
67196;DHT22;54122;53.538;49.366;2022-11-15T07:08:29;-0.60;51.30
67196;DHT22;54122;53.538;49.366;2022-11-15T07:11:00;-0.50;50.70
67196;DHT22;54122;53.538;49.366;2022-11-15T07:13:29;-0.40;50.30
67196;DHT22;54122;53.538;49.366;2022-11-15T07:15:55;-0.30;49.80
67196;DHT22;54122;53.538;49.366;2022-11-15T07:18:21;-0.20;49.80
67196;DHT22;54122;53.538;49.366;2022-11-15T07:20:47;-0.20;49.90
67196;DHT22;54122;53.538;49.366;2022-11-15T07:23:14;-0.10;49.90
67196;DHT22;54122;53.538;49.366;2022-11-15T07:25:40;-0.10;50.10
67196;DHT22;54122;53.538;49.366;2022-11-15T07:28:06;0.00;50.00
67196;DHT22;54122;53.538;49.366;2022-11-15T07:30:32;-0.10;50.20
67196;DHT22;54122;53.538;49.366;2022-11-15T07:32:59;0.00;50.70
67196;DHT22;54122;53.538;49.366;2022-11-15T07:35:27;0.00;50.90
67196;DHT22;54122;53.538;49.366;2022-11-15T07:40:24;0.00;50.10
67196;DHT22;54122;53.538;49.366;2022-11-15T07:42:51;-0.10;50.80
67196;DHT22;54122;53.538;49.366;2022-11-15T07:45:20;0.00;51.30
67196;DHT22;54122;53.538;49.366;2022-11-15T07:47:48;0.00;51.10
67196;DHT22;54122;53.538;49.366;2022-11-15T07:50:14;-0.10;50.60
67196;DHT22;54122;53.538;49.366;2022-11-15T07:52:40;-0.10;50.30
67196;DHT22;54122;53.538;49.366;2022-11-15T07:55:07;-0.10;50.00
67196;DHT22;54122;53.538;49.366;2022-11-15T07:57:33;-0.10;50.20
67196;DHT22;54122;53.538;49.366;2022-11-15T07:59:59;0.00;49.80
67196;DHT22;54122;53.538;49.366;2022-11-15T08:02:25;0.00;48.60
67196;DHT22;54122;53.538;49.366;2022-11-15T08:04:52;0.00;48.40
67196;DHT22;54122;53.538;49.366;2022-11-15T08:07:18;0.00;48.80
67196;DHT22;54122;53.538;49.366;2022-11-15T08:09:44;0.00;48.70
67196;DHT22;54122;53.538;49.366;2022-11-15T08:12:10;0.00;49.20
67196;DHT22;54122;53.538;49.366;2022-11-15T08:14:36;0.00;49.40
67196;DHT22;54122;53.538;49.366;2022-11-15T08:17:03;0.00;49.70
67196;DHT22;54122;53.538;49.366;2022-11-15T08:19:29;0.00;49.90
67196;DHT22;54122;53.538;49.366;2022-11-15T08:21:55;0.00;49.70
67196;DHT22;54122;53.538;49.366;2022-11-15T08:24:21;0.00;49.40
67196;DHT22;54122;53.538;49.366;2022-11-15T08:26:47;-0.10;50.10
67196;DHT22;54122;53.538;49.366;2022-11-15T08:29:13;-0.10;51.00
67196;DHT22;54122;53.538;49.366;2022-11-15T08:31:40;-0.20;51.10
67196;DHT22;54122;53.538;49.366;2022-11-15T08:34:06;-0.20;51.80
67196;DHT22;54122;53.538;49.366;2022-11-15T08:36:32;-0.20;51.90
67196;DHT22;54122;53.538;49.366;2022-11-15T08:38:58;-0.20;52.00
67196;DHT22;54122;53.538;49.366;2022-11-15T08:41:31;-0.20;52.70
67196;DHT22;54122;53.538;49.366;2022-11-15T08:43:57;-0.20;52.90
67196;DHT22;54122;53.538;49.366;2022-11-15T08:46:24;-0.20;52.90
67196;DHT22;54122;53.538;49.366;2022-11-15T08:48:50;-0.20;53.00
67196;DHT22;54122;53.538;49.366;2022-11-15T08:51:16;-0.10;53.00
67196;DHT22;54122;53.538;49.366;2022-11-15T08:53:42;-0.10;52.90
67196;DHT22;54122;53.538;49.366;2022-11-15T08:56:10;-0.10;52.70
67196;DHT22;54122;53.538;49.366;2022-11-15T08:58:37;-0.10;52.60
67196;DHT22;54122;53.538;49.366;2022-11-15T09:01:04;-0.10;52.60
67196;DHT22;54122;53.538;49.366;2022-11-15T09:03:31;0.00;52.10
67196;DHT22;54122;53.538;49.366;2022-11-15T09:05:59;0.00;51.70
67196;DHT22;54122;53.538;49.366;2022-11-15T09:08:30;0.00;52.10
67196;DHT22;54122;53.538;49.366;2022-11-15T09:10:56;0.10;52.70
67196;DHT22;54122;53.538;49.366;2022-11-15T09:13:23;0.20;52.90
67196;DHT22;54122;53.538;49.366;2022-11-15T09:15:49;0.20;53.10
67196;DHT22;54122;53.538;49.366;2022-11-15T09:18:15;0.20;53.00
67196;DHT22;54122;53.538;49.366;2022-11-15T09:20:41;0.20;53.00
67196;DHT22;54122;53.538;49.366;2022-11-15T09:23:07;0.20;53.10
67196;DHT22;54122;53.538;49.366;2022-11-15T09:25:33;0.10;53.30
67196;DHT22;54122;53.538;49.366;2022-11-15T09:28:00;0.10;53.00
67196;DHT22;54122;53.538;49.366;2022-11-15T09:30:26;0.00;52.90
67196;DHT22;54122;53.538;49.366;2022-11-15T09:32:52;0.10;53.30
67196;DHT22;54122;53.538;49.366;2022-11-15T09:35:18;0.20;52.70
67196;DHT22;54122;53.538;49.366;2022-11-15T09:37:44;0.10;52.00
67196;DHT22;54122;53.538;49.366;2022-11-15T09:40:16;0.10;52.20
67196;DHT22;54122;53.538;49.366;2022-11-15T09:43:02;0.10;51.70
67196;DHT22;54122;53.538;49.366;2022-11-15T09:45:42;0.10;52.70
67196;DHT22;54122;53.538;49.366;2022-11-15T09:50:59;0.30;53.90
67196;DHT22;54122;53.538;49.366;2022-11-15T09:53:56;0.40;53.10
67196;DHT22;54122;53.538;49.366;2022-11-15T09:56:28;0.50;52.60
67196;DHT22;54122;53.538;49.366;2022-11-15T10:02:18;0.40;51.60
67196;DHT22;54122;53.538;49.366;2022-11-15T10:04:23;0.30;51.70
67196;DHT22;54122;53.538;49.366;2022-11-15T10:09:48;0.10;51.80
67196;DHT22;54122;53.538;49.366;2022-11-15T10:12:15;0.20;52.20
67196;DHT22;54122;53.538;49.366;2022-11-15T10:14:43;0.30;52.10
67196;DHT22;54122;53.538;49.366;2022-11-15T10:20:17;0.30;51.70
67196;DHT22;54122;53.538;49.366;2022-11-15T10:25:33;0.00;52.40
67196;DHT22;54122;53.538;49.366;2022-11-15T10:28:32;0.00;53.10
67196;DHT22;54122;53.538;49.366;2022-11-15T10:30:59;0.00;53.40
67196;DHT22;54122;53.538;49.366;2022-11-15T10:33:35;-0.10;53.60
67196;DHT22;54122;53.538;49.366;2022-11-15T10:36:18;0.00;53.80
67196;DHT22;54122;53.538;49.366;2022-11-15T10:41:16;0.00;53.80
67196;DHT22;54122;53.538;49.366;2022-11-15T10:43:42;0.00;53.70
67196;DHT22;54122;53.538;49.366;2022-11-15T10:46:29;-0.10;53.70
67196;DHT22;54122;53.538;49.366;2022-11-15T10:49:27;-0.10;53.70
67196;DHT22;54122;53.538;49.366;2022-11-15T10:52:13;-0.20;54.10
67196;DHT22;54122;53.538;49.366;2022-11-15T10:55:03;-0.30;54.60
67196;DHT22;54122;53.538;49.366;2022-11-15T10:57:37;-0.40;55.20
67196;DHT22;54122;53.538;49.366;2022-11-15T11:00:22;-0.40;55.40
67196;DHT22;54122;53.538;49.366;2022-11-15T11:11:04;-0.30;56.10
67196;DHT22;54122;53.538;49.366;2022-11-15T11:13:36;-0.30;56.30
67196;DHT22;54122;53.538;49.366;2022-11-15T11:16:09;-0.40;56.50
67196;DHT22;54122;53.538;49.366;2022-11-15T11:19:14;-0.40;56.40
67196;DHT22;54122;53.538;49.366;2022-11-15T11:22:17;-0.40;56.80
67196;DHT22;54122;53.538;49.366;2022-11-15T11:25:10;-0.40;57.30
67196;DHT22;54122;53.538;49.366;2022-11-15T11:32:53;-0.40;55.90
67196;DHT22;54122;53.538;49.366;2022-11-15T11:44:18;-0.80;56.70
67196;DHT22;54122;53.538;49.366;2022-11-15T11:46:54;-0.80;57.30
67196;DHT22;54122;53.538;49.366;2022-11-15T11:49:28;-0.80;57.70
67196;DHT22;54122;53.538;49.366;2022-11-15T11:52:18;-0.80;57.50
67196;DHT22;54122;53.538;49.366;2022-11-15T11:58:06;-0.80;57.50
67196;DHT22;54122;53.538;49.366;2022-11-15T12:00:40;-0.80;56.90
67196;DHT22;54122;53.538;49.366;2022-11-15T12:06:02;-0.80;56.60
67196;DHT22;54122;53.538;49.366;2022-11-15T12:08:53;-0.80;56.60
67196;DHT22;54122;53.538;49.366;2022-11-15T12:11:54;-0.80;56.70
67196;DHT22;54122;53.538;49.366;2022-11-15T12:14:42;-0.80;58.00
67196;DHT22;54122;53.538;49.366;2022-11-15T12:17:10;-0.90;57.20
67196;DHT22;54122;53.538;49.366;2022-11-15T12:19:38;-0.90;57.50
67196;DHT22;54122;53.538;49.366;2022-11-15T12:22:16;-0.90;57.30
67196;DHT22;54122;53.538;49.366;2022-11-15T12:25:08;-1.00;57.50
67196;DHT22;54122;53.538;49.366;2022-11-15T12:30:18;-1.00;57.50
67196;DHT22;54122;53.538;49.366;2022-11-15T12:32:57;-1.00;57.40
67196;DHT22;54122;53.538;49.366;2022-11-15T12:37:56;-1.00;57.80
67196;DHT22;54122;53.538;49.366;2022-11-15T12:40:27;-1.10;58.00
67196;DHT22;54122;53.538;49.366;2022-11-15T12:45:36;-1.00;58.20
67196;DHT22;54122;53.538;49.366;2022-11-15T12:51:01;-1.00;58.50
67196;DHT22;54122;53.538;49.366;2022-11-15T12:53:31;-1.00;58.50
67196;DHT22;54122;53.538;49.366;2022-11-15T12:58:57;-0.90;58.80
67196;DHT22;54122;53.538;49.366;2022-11-15T13:06:47;-0.90;59.30
67196;DHT22;54122;53.538;49.366;2022-11-15T13:11:59;-1.00;59.40
67196;DHT22;54122;53.538;49.366;2022-11-15T13:14:51;-1.00;59.60
67196;DHT22;54122;53.538;49.366;2022-11-15T13:17:36;-1.00;59.80
67196;DHT22;54122;53.538;49.366;2022-11-15T13:22:44;-1.00;60.20
67196;DHT22;54122;53.538;49.366;2022-11-15T13:27:49;-1.00;60.60
67196;DHT22;54122;53.538;49.366;2022-11-15T13:30:24;-1.00;60.80
67196;DHT22;54122;53.538;49.366;2022-11-15T13:32:51;-1.00;60.90
67196;DHT22;54122;53.538;49.366;2022-11-15T13:35:24;-1.00;60.80
67196;DHT22;54122;53.538;49.366;2022-11-15T13:37:52;-1.00;60.90
67196;DHT22;54122;53.538;49.366;2022-11-15T13:40:28;-1.00;61.00
67196;DHT22;54122;53.538;49.366;2022-11-15T13:42:57;-0.90;61.30
67196;DHT22;54122;53.538;49.366;2022-11-15T13:45:24;-0.90;61.50
67196;DHT22;54122;53.538;49.366;2022-11-15T13:47:56;-0.90;61.80
67196;DHT22;54122;53.538;49.366;2022-11-15T13:50:29;-0.90;62.40
67196;DHT22;54122;53.538;49.366;2022-11-15T13:53:02;-0.90;63.80
67196;DHT22;54122;53.538;49.366;2022-11-15T13:55:30;-0.90;65.30
67196;DHT22;54122;53.538;49.366;2022-11-15T13:58:00;-1.00;66.50
67196;DHT22;54122;53.538;49.366;2022-11-15T14:00:42;-1.00;67.90
67196;DHT22;54122;53.538;49.366;2022-11-15T14:05:43;-1.00;69.50
67196;DHT22;54122;53.538;49.366;2022-11-15T14:10:42;-1.00;70.60
67196;DHT22;54122;53.538;49.366;2022-11-15T14:13:28;-1.00;71.20
67196;DHT22;54122;53.538;49.366;2022-11-15T14:16:16;-1.10;71.80
67196;DHT22;54122;53.538;49.366;2022-11-15T14:18:52;-1.10;72.00
67196;DHT22;54122;53.538;49.366;2022-11-15T14:21:19;-1.10;72.70
67196;DHT22;54122;53.538;49.366;2022-11-15T14:23:46;-1.10;72.80
67196;DHT22;54122;53.538;49.366;2022-11-15T14:26:33;-1.10;73.10
67196;DHT22;54122;53.538;49.366;2022-11-15T14:29:28;-1.20;73.40
67196;DHT22;54122;53.538;49.366;2022-11-15T14:32:13;-1.20;73.80
67196;DHT22;54122;53.538;49.366;2022-11-15T14:34:40;-1.20;73.90
67196;DHT22;54122;53.538;49.366;2022-11-15T14:39:49;-1.10;74.10
67196;DHT22;54122;53.538;49.366;2022-11-15T14:42:15;-1.10;74.00
67196;DHT22;54122;53.538;49.366;2022-11-15T14:44:42;-1.10;74.10
67196;DHT22;54122;53.538;49.366;2022-11-15T14:47:08;-1.10;75.10
67196;DHT22;54122;53.538;49.366;2022-11-15T14:49:34;-1.00;74.10
67196;DHT22;54122;53.538;49.366;2022-11-15T14:52:00;-1.00;74.10
67196;DHT22;54122;53.538;49.366;2022-11-15T14:54:26;-1.00;73.90
67196;DHT22;54122;53.538;49.366;2022-11-15T14:56:52;-1.00;73.80
67196;DHT22;54122;53.538;49.366;2022-11-15T14:59:18;-1.00;74.60
67196;DHT22;54122;53.538;49.366;2022-11-15T15:01:45;-0.90;73.40
67196;DHT22;54122;53.538;49.366;2022-11-15T15:04:11;-1.00;73.30
67196;DHT22;54122;53.538;49.366;2022-11-15T15:06:38;-1.00;73.20
67196;DHT22;54122;53.538;49.366;2022-11-15T15:09:05;-1.00;73.20
67196;DHT22;54122;53.538;49.366;2022-11-15T15:11:32;-0.90;73.30
67196;DHT22;54122;53.538;49.366;2022-11-15T15:13:58;-1.00;73.20
67196;DHT22;54122;53.538;49.366;2022-11-15T15:16:27;-0.90;73.10
67196;DHT22;54122;53.538;49.366;2022-11-15T15:18:53;-0.90;73.10
67196;DHT22;54122;53.538;49.366;2022-11-15T15:21:27;-1.00;72.80
67196;DHT22;54122;53.538;49.366;2022-11-15T15:23:54;-0.90;72.50
67196;DHT22;54122;53.538;49.366;2022-11-15T15:26:21;-0.90;71.90
67196;DHT22;54122;53.538;49.366;2022-11-15T15:28:48;-0.90;71.40
67196;DHT22;54122;53.538;49.366;2022-11-15T15:31:14;-0.90;71.10
67196;DHT22;54122;53.538;49.366;2022-11-15T15:33:41;-0.90;70.80
67196;DHT22;54122;53.538;49.366;2022-11-15T15:36:18;-1.00;70.10
67196;DHT22;54122;53.538;49.366;2022-11-15T15:38:44;-1.00;69.50
67196;DHT22;54122;53.538;49.366;2022-11-15T15:41:16;-0.90;69.20
67196;DHT22;54122;53.538;49.366;2022-11-15T15:43:42;-1.00;67.40
67196;DHT22;54122;53.538;49.366;2022-11-15T15:46:15;-1.00;66.20
67196;DHT22;54122;53.538;49.366;2022-11-15T15:48:41;-1.00;65.30
67196;DHT22;54122;53.538;49.366;2022-11-15T15:51:08;-1.00;64.80
67196;DHT22;54122;53.538;49.366;2022-11-15T15:53:35;-1.00;64.10
67196;DHT22;54122;53.538;49.366;2022-11-15T15:56:01;-0.90;64.20
67196;DHT22;54122;53.538;49.366;2022-11-15T15:58:27;-1.00;63.80
67196;DHT22;54122;53.538;49.366;2022-11-15T16:00:53;-1.00;62.40
67196;DHT22;54122;53.538;49.366;2022-11-15T16:03:20;-1.00;61.60
67196;DHT22;54122;53.538;49.366;2022-11-15T16:05:46;-1.00;61.20
67196;DHT22;54122;53.538;49.366;2022-11-15T16:08:18;-1.00;60.70
67196;DHT22;54122;53.538;49.366;2022-11-15T16:10:45;-1.00;60.40
67196;DHT22;54122;53.538;49.366;2022-11-15T16:13:11;-1.00;59.80
67196;DHT22;54122;53.538;49.366;2022-11-15T16:15:38;-1.00;59.90
67196;DHT22;54122;53.538;49.366;2022-11-15T16:18:05;-1.00;59.80
67196;DHT22;54122;53.538;49.366;2022-11-15T16:20:47;-1.00;60.00
67196;DHT22;54122;53.538;49.366;2022-11-15T16:23:16;-1.00;60.00
67196;DHT22;54122;53.538;49.366;2022-11-15T16:25:52;-1.00;60.10
67196;DHT22;54122;53.538;49.366;2022-11-15T16:28:32;-1.10;60.40
67196;DHT22;54122;53.538;49.366;2022-11-15T16:31:08;-1.10;60.50
67196;DHT22;54122;53.538;49.366;2022-11-15T16:33:35;-1.10;60.70
67196;DHT22;54122;53.538;49.366;2022-11-15T16:36:04;-1.10;60.90
67196;DHT22;54122;53.538;49.366;2022-11-15T16:38:32;-1.10;61.10
67196;DHT22;54122;53.538;49.366;2022-11-15T16:40:59;-1.10;60.90
67196;DHT22;54122;53.538;49.366;2022-11-15T16:43:29;-1.10;60.60
67196;DHT22;54122;53.538;49.366;2022-11-15T16:45:55;-1.10;60.60
67196;DHT22;54122;53.538;49.366;2022-11-15T16:48:23;-1.10;60.30
67196;DHT22;54122;53.538;49.366;2022-11-15T16:50:54;-1.10;60.30
67196;DHT22;54122;53.538;49.366;2022-11-15T16:53:21;-1.10;60.40
67196;DHT22;54122;53.538;49.366;2022-11-15T16:55:47;-1.10;60.20
67196;DHT22;54122;53.538;49.366;2022-11-15T16:58:14;-1.20;60.40
67196;DHT22;54122;53.538;49.366;2022-11-15T17:00:40;-1.20;60.60
67196;DHT22;54122;53.538;49.366;2022-11-15T17:03:06;-1.20;60.70
67196;DHT22;54122;53.538;49.366;2022-11-15T17:05:33;-1.20;60.80
67196;DHT22;54122;53.538;49.366;2022-11-15T17:08:00;-1.20;60.90
67196;DHT22;54122;53.538;49.366;2022-11-15T17:10:26;-1.20;61.00
67196;DHT22;54122;53.538;49.366;2022-11-15T17:12:54;-1.20;61.20
67196;DHT22;54122;53.538;49.366;2022-11-15T17:15:21;-1.20;61.40
67196;DHT22;54122;53.538;49.366;2022-11-15T17:17:53;-1.20;61.30
67196;DHT22;54122;53.538;49.366;2022-11-15T17:20:22;-1.20;61.50
67196;DHT22;54122;53.538;49.366;2022-11-15T17:22:49;-1.20;61.70
67196;DHT22;54122;53.538;49.366;2022-11-15T17:25:17;-1.30;61.80
67196;DHT22;54122;53.538;49.366;2022-11-15T17:27:45;-1.20;61.90